Time;durP1;ratioP1;P1;durP2;ratioP2;P2;SDS_P1;SDS_P2;PMS_P1;PMS_P2;Temp;Humidity;BMP_temperature;BMP_pressure;BME280_temperature;BME280_humidity;BME280_pressure;Samples;Min_cycle;Max_cycle;Signal;HPM_P1;HPM_P2
2023/05/20 00:04:20;;;;;;;10.40;8.15;;;14.90;99.90;;;13.35;100.00;100539.25;10340733;28;96655;-89
2023/05/20 00:09:23;;;;;;;6.90;5.90;;;14.90;99.90;;;13.31;100.00;100532.59;10354695;28;98022;-90
2023/05/20 00:14:26;;;;;;;13.65;6.80;;;14.90;99.90;;;13.25;100.00;100526.13;10308015;28;96578;-89
2023/05/20 00:19:29;;;;;;;8.27;6.07;;;14.80;99.90;;;13.19;100.00;100507.28;10351426;28;97269;-89
2023/05/20 00:24:33;;;;;;;7.03;6.20;;;14.80;99.90;;;13.12;100.00;100502.66;10351160;28;96577;-89
2023/05/20 00:29:36;;;;;;;6.70;5.45;;;14.70;99.90;;;13.13;100.00;100506.16;10289736;28;96649;-90
2023/05/20 00:34:39;;;;;;;9.77;6.20;;;14.70;99.90;;;13.11;100.00;100494.84;10297529;28;96675;-90
2023/05/20 00:39:42;;;;;;;11.73;6.50;;;14.70;99.90;;;13.16;100.00;100507.66;10332282;28;96701;-89
2023/05/20 00:44:45;;;;;;;6.60;5.43;;;14.70;99.90;;;13.19;100.00;100491.28;10313997;28;96560;-90
2023/05/20 00:49:50;;;;;;;11.20;6.22;;;14.80;99.90;;;13.23;100.00;100498.78;10365115;28;97719;-90
2023/05/20 00:54:53;;;;;;;7.13;5.50;;;14.80;99.90;;;13.27;100.00;100496.59;10353790;28;96950;-89
2023/05/20 00:59:56;;;;;;;11.25;6.50;;;14.80;99.90;;;13.25;100.00;100498.59;10351927;28;97351;-89
2023/05/20 01:04:59;;;;;;;7.45;6.00;;;14.80;99.90;;;13.26;100.00;100501.13;10317270;28;96530;-89
2023/05/20 01:10:02;;;;;;;6.18;5.35;;;14.90;99.90;;;13.15;100.00;100500.66;10340861;28;96742;-90
2023/05/20 01:15:12;;;;;;;8.30;6.30;;;14.70;99.90;;;13.07;100.00;100505.06;10301482;28;96514;-90
2023/05/20 01:20:16;;;;;;;6.73;5.57;;;14.60;99.90;;;12.97;100.00;100507.09;10347705;28;96593;-89
2023/05/20 01:25:19;;;;;;;8.45;6.68;;;14.50;99.90;;;12.91;100.00;100506.97;10331684;28;98633;-89
2023/05/20 01:30:28;;;;;;;8.65;5.43;;;14.40;99.90;;;12.89;100.00;100506.31;10343839;28;97648;-89
2023/05/20 01:35:32;;;;;;;10.63;7.77;;;14.40;99.90;;;12.85;100.00;100517.34;10344106;28;96602;-90
2023/05/20 01:40:36;;;;;;;6.57;5.60;;;14.30;99.90;;;12.80;100.00;100510.88;10357646;28;97257;-89
2023/05/20 01:45:41;;;;;;;24.48;7.07;;;14.30;99.90;;;12.77;100.00;100519.19;10343880;28;96952;-89
2023/05/20 01:50:44;;;;;;;11.97;6.23;;;14.30;99.90;;;12.74;100.00;100515.06;10364829;28;96636;-89
2023/05/20 01:55:48;;;;;;;27.87;8.63;;;14.30;99.90;;;12.72;100.00;100518.91;10339032;28;96592;-90
2023/05/20 02:00:51;;;;;;;8.50;7.17;;;14.30;99.90;;;12.67;100.00;100518.59;10346462;28;96916;-89
2023/05/20 02:05:54;;;;;;;13.00;7.67;;;14.20;99.90;;;12.56;100.00;100504.66;10345733;28;97127;-89
2023/05/20 02:10:57;;;;;;;7.63;6.43;;;14.20;99.90;;;12.55;100.00;100510.16;10371412;28;96525;-89
2023/05/20 02:16:00;;;;;;;13.73;6.83;;;14.10;99.90;;;12.51;100.00;100514.16;10359774;28;96759;-89
2023/05/20 02:21:05;;;;;;;7.40;5.80;;;14.10;99.90;;;12.48;100.00;100512.69;10344927;28;98003;-90
2023/05/20 02:26:08;;;;;;;12.53;7.67;;;14.10;99.90;;;12.43;100.00;100522.19;10312687;28;97218;-90
2023/05/20 02:31:11;;;;;;;9.43;7.67;;;14.00;99.90;;;12.36;100.00;100513.22;10387998;28;98725;-89
2023/05/20 02:36:16;;;;;;;16.70;7.73;;;14.00;99.90;;;12.25;100.00;100515.25;10343332;28;96633;-90
2023/05/20 02:41:20;;;;;;;8.17;6.50;;;13.80;99.90;;;12.19;100.00;100520.44;10323189;28;96562;-89
2023/05/20 02:46:23;;;;;;;8.10;7.00;;;13.80;99.90;;;12.11;100.00;100517.78;10345751;28;96624;-90
2023/05/20 02:51:26;;;;;;;18.17;7.87;;;13.70;99.90;;;12.08;100.00;100534.94;10342776;28;96685;-89
2023/05/20 02:56:29;;;;;;;30.33;7.17;;;13.60;99.90;;;12.03;100.00;100532.78;10355778;28;98307;-90
2023/05/20 03:01:34;;;;;;;11.47;6.83;;;13.60;99.90;;;11.98;100.00;100534.28;10360248;28;97737;-90
2023/05/20 03:06:37;;;;;;;7.70;6.20;;;13.60;99.90;;;12.00;100.00;100537.63;10328423;28;96536;-90
2023/05/20 03:11:40;;;;;;;8.57;5.77;;;13.60;99.90;;;11.95;100.00;100535.47;10319719;28;96930;-90
2023/05/20 03:16:43;;;;;;;7.90;6.70;;;13.50;99.90;;;11.93;100.00;100537.44;10327567;28;97309;-90
2023/05/20 03:21:46;;;;;;;21.87;7.57;;;13.50;99.90;;;11.90;100.00;100543.13;10313689;28;97818;-90
2023/05/20 03:26:49;;;;;;;7.53;6.13;;;13.50;99.90;;;11.89;100.00;100549.44;10341594;28;96655;-90
2023/05/20 03:31:52;;;;;;;13.07;7.93;;;13.50;99.90;;;11.89;100.00;100545.97;10341050;28;96600;-90
2023/05/20 03:36:56;;;;;;;15.13;8.10;;;13.50;99.90;;;11.91;100.00;100547.44;10340042;28;96816;-90
2023/05/20 03:42:00;;;;;;;9.57;7.37;;;13.50;99.90;;;11.95;100.00;100547.94;10340374;28;98318;-89
2023/05/20 03:47:03;;;;;;;14.97;6.40;;;13.50;99.90;;;11.98;100.00;100552.91;10354654;28;96570;-90
2023/05/20 03:52:07;;;;;;;12.77;9.63;;;13.60;99.90;;;12.08;100.00;100566.91;10385512;28;97775;-90
2023/05/20 03:57:10;;;;;;;12.73;8.00;;;13.60;99.90;;;12.11;100.00;100561.22;10356911;28;96907;-90
2023/05/20 04:02:13;;;;;;;10.23;6.83;;;13.70;99.90;;;12.11;100.00;100565.72;10325305;28;96503;-90
2023/05/20 04:07:16;;;;;;;10.23;7.57;;;13.70;99.90;;;12.22;100.00;100562.72;10355391;28;96529;-90
2023/05/20 04:12:19;;;;;;;8.10;5.90;;;13.80;99.90;;;12.34;100.00;100566.69;10359374;28;96970;-90
2023/05/20 04:17:22;;;;;;;9.25;6.97;;;13.90;99.90;;;12.44;100.00;100572.66;10318228;28;96783;-90
2023/05/20 04:22:26;;;;;;;8.20;6.47;;;14.00;99.90;;;12.54;100.00;100567.97;10356502;28;96731;-90
2023/05/20 04:27:30;;;;;;;11.55;6.05;;;14.10;99.90;;;12.69;100.00;100569.91;10341077;28;98693;-90
2023/05/20 04:32:33;;;;;;;8.30;6.47;;;14.20;99.90;;;12.83;100.00;100580.69;10321606;28;97560;-90
2023/05/20 04:37:37;;;;;;;12.80;7.85;;;14.40;99.90;;;12.99;100.00;100578.94;10353949;28;96729;-90
2023/05/20 04:42:40;;;;;;;6.57;5.88;;;14.50;99.90;;;13.14;100.00;100582.56;10356341;28;96692;-89
2023/05/20 04:47:44;;;;;;;9.75;6.65;;;14.70;99.90;;;13.28;100.00;100578.31;10322889;28;97009;-90
2023/05/20 04:52:48;;;;;;;9.95;7.65;;;14.80;99.90;;;13.46;100.00;100581.53;10339781;28;96471;-90
2023/05/20 04:57:51;;;;;;;5.95;5.28;;;15.00;99.90;;;13.68;100.00;100587.09;10354196;28;97587;-90
2023/05/20 05:02:54;;;;;;;12.48;7.15;;;15.20;99.90;;;13.84;100.00;100570.91;10351503;28;98759;-89
2023/05/20 05:07:57;;;;;;;8.23;5.68;;;15.50;99.90;;;14.14;100.00;100571.81;10301110;28;96990;-90
2023/05/20 05:13:01;;;;;;;6.68;4.95;;;15.70;99.90;;;14.43;100.00;100569.16;10337996;28;97334;-89
2023/05/20 05:18:04;;;;;;;7.93;5.40;;;16.00;99.90;;;14.73;100.00;100564.66;10332992;28;96877;-90
2023/05/20 05:23:07;;;;;;;5.60;4.35;;;16.30;99.90;;;14.98;100.00;100570.53;10298251;28;96708;-90
2023/05/20 05:28:10;;;;;;;8.55;4.93;;;16.60;99.90;;;15.19;100.00;100579.66;10316821;28;96587;-90
2023/05/20 05:33:14;;;;;;;7.30;4.85;;;16.70;99.90;;;15.43;100.00;100578.47;10339532;28;98925;-90
2023/05/20 05:38:17;;;;;;;23.77;5.78;;;17.00;99.90;;;15.61;100.00;100570.00;10335643;28;96933;-91
2023/05/20 05:43:20;;;;;;;7.60;4.43;;;17.20;99.90;;;15.81;100.00;100578.22;10346412;28;96748;-91
2023/05/20 05:48:23;;;;;;;9.20;4.38;;;17.40;99.90;;;15.92;100.00;100575.03;10329624;28;96616;-92
2023/05/20 05:53:26;;;;;;;6.20;4.32;;;17.60;99.90;;;16.09;100.00;100584.44;10354770;28;97716;-91
2023/05/20 05:58:30;;;;;;;16.15;4.68;;;17.70;99.90;;;16.26;100.00;100587.69;10336245;28;96638;-89
2023/05/20 06:03:34;;;;;;;16.48;4.68;;;17.90;99.90;;;16.45;100.00;100589.66;10322878;28;96866;-89
2023/05/20 06:08:37;;;;;;;6.70;5.20;;;18.10;99.90;;;16.63;100.00;100591.84;10338415;28;97132;-89
2023/05/20 06:13:41;;;;;;;6.30;4.43;;;18.30;99.90;;;16.78;100.00;100594.41;10349063;28;97351;-88
2023/05/20 06:18:45;;;;;;;18.55;6.20;;;18.40;99.90;;;16.96;100.00;100591.19;10341631;28;96595;-89
2023/05/20 06:23:49;;;;;;;15.15;5.10;;;18.60;99.90;;;17.11;97.43;100583.81;10359171;28;96760;-89
2023/05/20 06:28:52;;;;;;;6.40;4.47;;;18.80;99.90;;;17.24;90.20;100591.91;10322612;28;98145;-90
2023/05/20 06:33:55;;;;;;;22.77;5.15;;;18.90;99.90;;;17.35;88.82;100587.84;10322471;28;96756;-89
2023/05/20 06:38:59;;;;;;;21.05;4.70;;;19.00;99.90;;;17.52;88.44;100582.91;10353999;28;96877;-88
2023/05/20 06:44:02;;;;;;;13.25;4.72;;;19.20;99.90;;;17.72;88.15;100583.78;10324539;28;98599;-89
2023/05/20 06:49:05;;;;;;;6.78;4.22;;;19.40;99.90;;;17.85;87.14;100573.03;10353485;28;96623;-89
2023/05/20 06:54:07;;;;;;;13.80;5.43;;;19.60;99.90;;;17.95;82.08;100566.44;10372593;28;97816;-88
2023/05/20 06:59:11;;;;;;;8.38;4.55;;;19.70;99.90;;;18.10;85.49;100567.03;10304295;28;96592;-90
2023/05/20 07:04:14;;;;;;;18.02;5.43;;;19.80;99.90;;;18.25;81.46;100559.59;10326260;28;98243;-88
2023/05/20 07:09:17;;;;;;;12.63;4.75;;;20.00;99.90;;;18.40;79.50;100564.72;10324305;28;96753;-89
2023/05/20 07:14:20;;;;;;;16.38;5.00;;;20.10;99.90;;;18.53;78.82;100562.03;10327572;28;96928;-89
2023/05/20 07:19:23;;;;;;;11.93;5.38;;;20.20;99.90;;;18.66;78.17;100559.28;10305172;28;96811;-89
2023/05/20 07:24:26;;;;;;;14.18;5.22;;;20.40;99.90;;;18.80;77.13;100546.63;10302681;28;97479;-89
2023/05/20 07:29:30;;;;;;;8.05;4.53;;;20.50;99.90;;;19.02;79.21;100527.50;10337944;28;96728;-89
2023/05/20 07:34:33;;;;;;;13.57;5.30;;;20.70;99.90;;;19.20;74.17;100541.88;10358417;28;96677;-89
2023/05/20 07:39:36;;;;;;;15.20;5.32;;;20.90;99.90;;;19.38;69.87;100540.34;10325959;28;96586;-90
2023/05/20 07:44:39;;;;;;;8.10;5.10;;;21.10;99.90;;;19.49;67.63;100545.84;10356810;28;96742;-90
2023/05/20 07:49:43;;;;;;;8.43;5.22;;;21.20;99.90;;;19.62;65.62;100546.84;10346761;28;97409;-91
2023/05/20 07:54:46;;;;;;;8.63;5.65;;;21.30;99.90;;;19.81;66.23;100548.53;10341195;28;96783;-89
2023/05/20 07:59:49;;;;;;;8.07;5.43;;;21.50;99.90;;;19.96;65.05;100546.31;10359223;28;96807;-91
2023/05/20 08:04:52;;;;;;;9.52;5.53;;;21.70;99.90;;;20.08;64.13;100532.13;10358999;28;96663;-89
2023/05/20 08:09:56;;;;;;;12.13;5.65;;;21.80;99.50;;;20.14;62.78;100528.53;10353944;28;96889;-89
2023/05/20 08:14:59;;;;;;;6.47;5.45;;;21.90;98.30;;;20.19;64.94;100534.09;10339606;28;98162;-90
2023/05/20 08:20:03;;;;;;;8.57;6.25;;;21.90;98.70;;;20.25;61.82;100528.63;10316669;28;97652;-89
2023/05/20 08:25:08;;;;;;;9.30;5.38;;;21.90;97.10;;;20.30;62.82;100523.38;10367057;28;98776;-89
2023/05/20 08:30:11;;;;;;;9.43;6.07;;;22.00;97.20;;;20.38;64.21;100522.25;10340172;28;96679;-90
2023/05/20 08:35:14;;;;;;;7.15;5.80;;;22.10;97.90;;;20.49;63.58;100505.34;10339928;28;96689;-88
2023/05/20 08:40:19;;;;;;;8.55;6.90;;;22.20;97.90;;;20.56;63.77;100503.38;10333669;28;96690;-89
2023/05/20 08:45:26;;;;;;;8.20;5.85;;;22.30;97.20;;;20.73;62.95;100510.88;10349116;28;97549;-90
2023/05/20 08:50:31;;;;;;;8.85;6.72;;;22.40;97.20;;;20.84;63.23;100500.13;10341111;28;96659;-91
2023/05/20 08:55:41;;;;;;;7.53;6.03;;;22.50;97.20;;;21.00;63.51;100497.88;10348803;28;96550;-91
2023/05/20 09:00:45;;;;;;;8.73;6.07;;;22.60;97.20;;;21.17;60.21;100484.50;10338350;28;98068;-88
2023/05/20 09:05:48;;;;;;;8.13;5.45;;;22.80;95.60;;;21.31;61.27;100488.72;10366535;28;96725;-91
2023/05/20 09:10:52;;;;;;;6.95;5.25;;;22.90;95.80;;;21.50;60.69;100479.47;10339376;28;96438;-91
2023/05/20 09:15:56;;;;;;;7.30;5.50;;;23.20;95.30;;;21.67;60.58;100476.91;10355449;28;96606;-90
2023/05/20 09:21:07;;;;;;;7.40;6.03;;;23.30;95.20;;;21.79;57.96;100485.03;10325168;28;96623;-91
2023/05/20 09:26:11;;;;;;;8.65;6.10;;;23.50;93.80;;;21.84;58.13;100482.44;10360208;28;96479;-90
2023/05/20 09:31:14;;;;;;;9.27;6.15;;;23.50;93.80;;;21.99;58.67;100476.53;10358663;28;97500;-91
2023/05/20 09:36:20;;;;;;;10.07;5.97;;;23.60;94.50;;;22.12;59.39;100468.19;10343886;28;96672;-90
2023/05/20 09:41:32;;;;;;;10.75;6.35;;;23.80;94.40;;;22.27;56.89;100468.53;10332404;28;98346;-91
2023/05/20 09:46:37;;;;;;;9.38;6.60;;;23.90;92.70;;;22.36;57.25;100445.44;10365023;28;97643;-91
2023/05/20 09:51:42;;;;;;;10.07;5.90;;;24.10;92.60;;;22.43;56.00;100443.44;10379197;28;96578;-92
2023/05/20 09:56:46;;;;;;;8.98;5.93;;;24.10;91.80;;;22.43;53.64;100429.06;10329925;28;96651;-91
2023/05/20 10:01:49;;;;;;;12.45;5.80;;;24.20;90.40;;;22.58;55.26;100426.66;10342763;28;97094;-91
2023/05/20 10:07:14;;;;;;;7.82;5.78;;;24.30;90.60;;;22.74;53.33;100430.50;10321636;28;97541;-92
2023/05/20 10:12:48;;;;;;;7.55;6.00;;;24.40;88.60;;;22.82;51.82;100415.72;10345035;28;96807;-88
2023/05/20 10:18:29;;;;;;;6.75;5.53;;;24.50;87.10;;;22.96;51.78;100411.66;10355399;28;96748;-91
2023/05/20 10:23:32;;;;;;;10.15;5.75;;;24.60;85.40;;;23.03;49.38;100404.22;10364279;28;97471;-93
2023/05/20 10:28:38;;;;;;;8.65;5.28;;;24.70;82.50;;;23.17;50.83;100410.97;10355978;28;96673;-90
2023/05/20 10:33:44;;;;;;;8.02;5.85;;;24.80;83.90;;;23.30;52.00;100398.16;10368283;28;97504;-89
2023/05/20 10:38:57;;;;;;;7.68;5.75;;;25.00;85.30;;;23.47;49.44;100379.97;10325141;28;96961;-89
2023/05/20 10:44:05;;;;;;;8.60;6.18;;;25.10;82.60;;;23.59;50.45;100374.47;10329525;28;96604;-88
2023/05/20 10:49:18;;;;;;;7.65;6.40;;;25.20;81.80;;;23.67;49.26;100380.28;10339360;28;96680;-89
2023/05/20 10:54:25;;;;;;;10.18;6.63;;;25.40;80.40;;;23.89;50.80;100377.63;10361569;28;96613;-89
2023/05/20 10:59:28;;;;;;;7.32;5.72;;;25.50;81.60;;;24.01;48.06;100367.47;10356361;28;96740;-89
2023/05/20 11:04:31;;;;;;;7.55;6.05;;;25.70;78.50;;;24.14;48.91;100371.69;10340953;28;96646;-89
2023/05/20 11:09:35;;;;;;;10.43;6.00;;;25.80;78.90;;;24.26;47.15;100358.81;10338121;28;96780;-90
2023/05/20 11:14:37;;;;;;;8.80;5.60;;;25.90;77.60;;;24.33;46.93;100352.34;10359244;28;96519;-90
2023/05/20 11:19:41;;;;;;;7.30;5.57;;;26.00;76.30;;;24.39;44.42;100354.91;10302553;28;96640;-91
2023/05/20 11:24:44;;;;;;;6.72;5.55;;;26.10;71.90;;;24.43;43.21;100353.31;10324332;28;96682;-90
2023/05/20 11:29:49;;;;;;;8.48;6.50;;;26.10;71.40;;;24.62;45.97;100350.25;10343269;28;97776;-90
2023/05/20 11:34:52;;;;;;;9.15;6.30;;;26.30;73.80;;;24.69;44.55;100351.66;10331249;28;96802;-90
2023/05/20 11:40:07;;;;;;;8.55;6.10;;;26.40;72.30;;;24.71;43.92;100348.69;10361633;28;98346;-90
2023/05/20 11:45:13;;;;;;;8.98;6.18;;;26.50;71.50;;;24.62;43.80;100344.81;10319119;28;98337;-91
2023/05/20 11:50:17;;;;;;;9.70;5.20;;;26.40;70.40;;;24.60;42.75;100336.94;10338592;28;96959;-89
2023/05/20 11:55:20;;;;;;;16.50;6.30;;;26.40;69.00;;;24.70;44.21;100337.00;10319333;28;97157;-90
2023/05/20 12:00:24;;;;;;;18.35;5.78;;;26.40;69.30;;;24.82;45.27;100334.94;10338000;28;96734;-90
2023/05/20 12:05:30;;;;;;;15.25;6.45;;;26.50;71.10;;;24.89;41.51;100339.34;10334858;28;96626;-89
2023/05/20 12:10:36;;;;;;;12.30;5.82;;;26.60;67.80;;;24.88;41.99;100343.13;10328363;28;97263;-90
2023/05/20 12:15:40;;;;;;;9.57;5.25;;;26.60;66.50;;;24.82;42.19;100334.13;10336697;28;96844;-89
2023/05/20 12:20:43;;;;;;;15.93;5.80;;;26.60;66.60;;;24.92;42.72;100330.69;10330172;28;96520;-90
2023/05/20 12:25:48;;;;;;;19.58;6.20;;;26.60;66.60;;;24.91;41.56;100316.25;10353150;28;97169;-89
2023/05/20 12:30:52;;;;;;;14.57;5.32;;;26.60;65.20;;;25.09;43.29;100318.63;10316339;28;96613;-90
2023/05/20 12:35:55;;;;;;;10.20;5.30;;;26.80;67.00;;;25.20;42.40;100318.69;10311307;28;98353;-92
2023/05/20 12:40:58;;;;;;;12.07;6.15;;;26.90;66.20;;;25.27;44.42;100308.41;10338761;28;96688;-89
2023/05/20 12:46:01;;;;;;;12.52;6.00;;;26.90;67.90;;;25.35;41.54;100313.34;10308229;28;96568;-90
2023/05/20 12:51:04;;;;;;;11.90;5.35;;;27.00;65.70;;;25.43;40.06;100303.84;10354850;28;97470;-90
2023/05/20 12:56:07;;;;;;;9.10;5.38;;;27.20;64.10;;;25.44;40.11;100303.63;10354593;28;96873;-89
2023/05/20 13:01:10;;;;;;;11.45;5.68;;;27.20;62.80;;;25.66;40.93;100295.28;10338335;28;97394;-88
2023/05/20 13:06:13;;;;;;;28.23;5.47;;;27.30;64.30;;;25.81;41.21;100289.13;10321672;28;96479;-89
2023/05/20 13:11:17;;;;;;;8.73;5.05;;;27.50;63.90;;;25.69;39.08;100283.88;10326974;28;98522;-89
2023/05/20 13:16:20;;;;;;;13.45;5.60;;;27.40;61.00;;;25.78;40.14;100287.72;10345071;28;96587;-90
2023/05/20 13:21:23;;;;;;;10.07;5.43;;;27.40;62.80;;;25.70;39.69;100276.53;10346645;28;96499;-90
2023/05/20 13:26:26;;;;;;;8.45;5.20;;;27.30;62.20;;;25.68;39.43;100275.97;10361305;28;97410;-88
2023/05/20 13:31:29;;;;;;;13.25;5.45;;;27.30;61.10;;;25.76;40.51;100273.59;10343639;28;96799;-89
2023/05/20 13:36:33;;;;;;;16.90;5.55;;;27.30;62.50;;;25.67;38.64;100267.00;10355606;28;97411;-90
2023/05/20 13:41:36;;;;;;;11.63;5.80;;;27.30;60.80;;;25.62;37.79;100250.66;10356128;28;96580;-90
2023/05/20 13:46:39;;;;;;;15.73;5.82;;;27.20;59.60;;;25.73;39.31;100257.81;10316733;28;97174;-89
2023/05/20 13:51:42;;;;;;;7.07;4.72;;;27.30;60.20;;;26.03;42.06;100253.50;10334356;28;98233;-91
2023/05/20 13:56:45;;;;;;;10.52;5.10;;;27.60;62.70;;;26.22;40.10;100251.94;10321038;28;97551;-90
2023/05/20 14:01:48;;;;;;;8.10;5.25;;;27.80;62.10;;;26.02;39.58;100247.25;10351092;28;96737;-90
2023/05/20 14:06:51;;;;;;;16.13;5.60;;;27.70;61.10;;;25.81;39.50;100262.72;10360259;28;96670;-90
2023/05/20 14:11:55;;;;;;;13.43;5.90;;;27.50;59.90;;;25.82;40.93;100252.66;10342138;28;98115;-90
2023/05/20 14:16:58;;;;;;;16.33;5.75;;;27.40;61.80;;;25.69;38.74;100253.94;10324543;28;96803;-91
2023/05/20 14:22:02;;;;;;;8.93;5.45;;;27.40;60.10;;;25.86;40.48;100246.41;10341310;28;98163;-92
2023/05/20 14:27:05;;;;;;;7.60;5.25;;;27.50;61.10;;;25.97;38.75;100244.53;10363063;28;96633;-92
2023/05/20 14:32:10;;;;;;;14.98;5.45;;;27.70;59.50;;;25.96;38.84;100240.16;10384192;28;96679;-92
2023/05/20 14:37:14;;;;;;;13.48;5.90;;;27.80;59.30;;;26.12;39.25;100232.84;10324504;28;97112;-92
2023/05/20 14:42:17;;;;;;;7.72;5.13;;;28.10;59.50;;;26.05;39.82;100227.66;10340098;28;96673;-93
2023/05/20 14:47:21;;;;;;;5.95;4.63;;;28.20;59.30;;;26.05;40.12;100218.69;10356971;28;96961;-90
2023/05/20 14:52:24;;;;;;;13.80;5.93;;;28.20;59.70;;;26.19;38.41;100227.13;10340107;28;97888;-93
2023/05/20 14:57:27;;;;;;;17.17;5.57;;;28.60;58.30;;;26.32;38.18;100226.59;10328678;28;96652;-91
2023/05/20 15:02:30;;;;;;;15.88;5.97;;;28.90;57.30;;;26.53;37.96;100227.47;10345531;28;96556;-91
2023/05/20 15:07:33;;;;;;;12.73;5.35;;;29.10;56.80;;;26.80;36.62;100225.25;10324836;28;96729;-92
2023/05/20 15:12:36;;;;;;;46.80;7.72;;;29.30;56.10;;;26.81;36.34;100223.34;10344810;28;96606;-92
2023/05/20 15:17:39;;;;;;;13.07;5.30;;;29.20;55.20;;;26.65;36.32;100208.94;10363412;28;96626;-93
2023/05/20 15:22:47;;;;;;;19.63;5.72;;;29.10;54.20;;;26.51;37.05;100210.56;10340813;28;96927;-93
2023/05/20 15:27:50;;;;;;;24.65;6.20;;;28.80;55.00;;;26.29;37.35;100214.34;10345327;28;96570;-92
2023/05/20 15:32:53;;;;;;;13.60;5.60;;;28.50;55.80;;;26.23;37.49;100206.44;10340039;28;96733;-92
2023/05/20 15:37:56;;;;;;;16.70;5.50;;;28.40;56.00;;;26.19;38.70;100214.31;10354294;28;96712;-91
2023/05/20 15:42:59;;;;;;;45.53;6.97;;;28.30;56.90;;;26.33;39.67;100200.97;10380633;28;96615;-92
2023/05/20 15:48:02;;;;;;;21.48;5.68;;;28.40;58.00;;;26.48;39.02;100197.50;10327717;28;96419;-92
2023/05/20 15:53:07;;;;;;;18.38;5.55;;;28.60;57.40;;;26.49;38.42;100199.13;10332811;28;98387;-91
2023/05/20 15:58:11;;;;;;;18.60;6.20;;;28.60;56.90;;;26.22;38.44;100186.56;10346355;28;96624;-92
2023/05/20 16:03:15;;;;;;;23.02;5.70;;;28.40;56.70;;;26.20;40.24;100186.00;10327067;28;97052;-91
2023/05/20 16:08:19;;;;;;;19.48;6.20;;;28.20;57.90;;;26.26;39.95;100195.00;10324087;28;96749;-91
2023/05/20 16:13:22;;;;;;;21.13;6.32;;;28.20;58.20;;;26.06;39.53;100195.81;10342636;28;97414;-91
2023/05/20 16:18:29;;;;;;;24.92;6.70;;;28.00;57.60;;;25.88;39.63;100188.97;10358184;28;96736;-92
2023/05/20 16:23:33;;;;;;;23.42;6.15;;;27.70;57.80;;;25.64;38.51;100194.03;10323675;28;97582;-91
2023/05/20 16:28:36;;;;;;;17.17;5.47;;;27.40;57.30;;;25.32;39.85;100189.56;10351779;28;96736;-92
2023/05/20 16:33:40;;;;;;;27.20;5.97;;;27.00;57.70;;;25.19;40.31;100183.78;10324375;28;96662;-92
2023/05/20 16:38:43;;;;;;;14.43;4.93;;;26.80;58.70;;;25.04;40.37;100189.94;10337080;28;96626;-92
2023/05/20 16:43:46;;;;;;;7.47;5.20;;;26.70;58.90;;;24.88;41.50;100202.63;10307627;28;96459;-92
2023/05/20 16:48:49;;;;;;;7.05;5.00;;;26.50;59.40;;;24.69;41.34;100201.41;10342681;28;96621;-92
2023/05/20 16:53:52;;;;;;;15.95;4.80;;;26.30;59.80;;;24.45;40.31;100201.75;10350120;28;96503;-92
2023/05/20 16:58:55;;;;;;;14.23;4.90;;;26.00;59.20;;;24.23;41.85;100209.13;10328083;28;96631;-93
2023/05/20 17:03:58;;;;;;;28.05;5.25;;;25.80;59.70;;;23.99;42.16;100195.91;10343597;28;96728;-91
2023/05/20 17:09:03;;;;;;;13.85;5.05;;;25.60;60.30;;;23.77;43.38;100198.66;10345736;28;98281;-92
2023/05/20 17:14:20;;;;;;;9.77;4.78;;;25.40;60.90;;;23.58;44.09;100205.47;10348787;28;96654;-91
2023/05/20 17:19:23;;;;;;;39.42;5.93;;;25.20;61.50;;;23.40;43.58;100203.91;10340392;28;96823;-91
2023/05/20 17:24:26;;;;;;;29.50;5.78;;;25.00;61.80;;;23.24;44.57;100204.75;10346034;28;96611;-92
2023/05/20 17:29:29;;;;;;;72.25;7.15;;;24.80;62.30;;;23.12;46.11;100212.19;10359201;28;96578;-91
2023/05/20 17:34:32;;;;;;;39.65;6.15;;;24.70;63.30;;;22.96;47.51;100209.25;10358890;28;97576;-92
2023/05/20 17:39:35;;;;;;;28.45;4.85;;;24.50;64.10;;;22.83;45.93;100219.59;10371240;28;96556;-93
2023/05/20 17:44:38;;;;;;;11.88;4.47;;;24.30;64.00;;;22.64;46.55;100217.16;10366270;28;97373;-92
2023/05/20 17:49:41;;;;;;;5.55;3.85;;;24.20;63.90;;;22.45;48.21;100215.75;10325118;28;96623;-92
2023/05/20 17:54:45;;;;;;;5.68;4.05;;;24.10;64.90;;;22.23;50.11;100217.53;10323782;28;97736;-92
2023/05/20 17:59:48;;;;;;;10.35;4.85;;;23.90;65.80;;;21.99;51.38;100220.31;10353593;28;97249;-91
2023/05/20 18:04:51;;;;;;;5.63;3.80;;;23.60;66.60;;;21.69;52.47;100219.72;10372606;28;96726;-91
2023/05/20 18:09:54;;;;;;;6.53;4.47;;;23.30;67.80;;;21.39;53.78;100226.16;10338600;28;97109;-92
2023/05/20 18:14:57;;;;;;;10.65;4.85;;;22.90;69.20;;;21.04;55.31;100221.59;10360108;28;97644;-92
2023/05/20 18:20:00;;;;;;;6.20;4.55;;;22.50;70.80;;;20.71;57.12;100226.75;10331677;28;96699;-92
2023/05/20 18:25:03;;;;;;;8.63;5.72;;;22.20;72.20;;;20.35;57.76;100233.13;10324002;28;97048;-92
2023/05/20 18:30:08;;;;;;;7.97;4.88;;;21.80;73.10;;;20.02;58.60;100224.44;10339851;28;96694;-92
2023/05/20 18:35:12;;;;;;;8.40;4.32;;;21.50;74.20;;;19.82;59.29;100223.09;10369954;28;96679;-92
2023/05/20 18:40:15;;;;;;;7.80;5.15;;;21.30;74.80;;;19.66;59.97;100238.81;10374326;28;96555;-92
2023/05/20 18:45:18;;;;;;;7.25;5.05;;;21.20;75.40;;;19.53;60.66;100244.34;10350573;28;96668;-92
2023/05/20 18:50:21;;;;;;;5.20;4.22;;;21.00;75.80;;;19.33;60.88;100249.16;10364607;28;96701;-92
2023/05/20 18:55:24;;;;;;;8.27;4.85;;;20.80;76.10;;;19.17;61.14;100242.47;10339064;28;98034;-92
2023/05/20 19:00:27;;;;;;;8.38;4.63;;;20.70;76.80;;;19.08;62.13;100257.28;10343201;28;96583;-91
2023/05/20 19:05:30;;;;;;;6.60;5.05;;;20.50;77.40;;;18.81;63.20;100251.31;10362511;28;96572;-91
2023/05/20 19:10:34;;;;;;;8.27;5.18;;;20.30;78.50;;;18.63;64.72;100252.88;10352322;28;97958;-93
2023/05/20 19:15:37;;;;;;;7.22;4.68;;;20.10;79.80;;;18.43;66.13;100263.78;10308653;28;96597;-93
2023/05/20 19:20:40;;;;;;;10.07;5.90;;;19.90;80.60;;;18.22;66.89;100266.81;10326553;28;96655;-92
2023/05/20 19:25:43;;;;;;;7.57;5.13;;;19.60;81.90;;;18.00;68.22;100270.88;10354644;28;96903;-92
2023/05/20 19:30:46;;;;;;;7.20;4.75;;;19.40;83.10;;;17.84;68.72;100267.63;10341263;28;97503;-93
2023/05/20 19:35:49;;;;;;;8.68;5.80;;;19.30;84.20;;;17.69;70.00;100268.88;10333856;28;96660;-94
2023/05/20 19:40:53;;;;;;;7.95;5.30;;;19.10;85.40;;;17.53;70.43;100275.56;10339103;28;97162;-93
2023/05/20 19:45:56;;;;;;;6.25;4.60;;;18.90;86.10;;;17.43;70.38;100281.38;10353604;28;96616;-93
2023/05/20 19:51:00;;;;;;;7.72;4.63;;;18.80;86.60;;;17.36;70.67;100276.03;10350469;28;96696;-93
2023/05/20 19:56:04;;;;;;;27.80;6.60;;;18.80;87.50;;;17.29;70.57;100280.59;10345508;28;98247;-93
2023/05/20 20:01:07;;;;;;;6.80;4.22;;;18.70;87.70;;;17.21;71.32;100272.75;10323837;28;98670;-92
2023/05/20 20:06:10;;;;;;;29.77;7.00;;;18.60;88.60;;;17.06;72.86;100275.66;10343994;28;96572;-93
2023/05/20 20:11:14;;;;;;;8.98;5.72;;;18.50;89.80;;;16.90;74.11;100286.81;10354258;28;97031;-93
2023/05/20 20:16:17;;;;;;;8.48;5.95;;;18.40;90.90;;;16.77;74.78;100282.28;10339047;28;96866;-94
2023/05/20 20:21:20;;;;;;;7.50;5.40;;;18.20;91.30;;;16.69;75.60;100290.50;10341986;28;96587;-93
2023/05/20 20:26:24;;;;;;;7.55;5.07;;;18.00;91.90;;;16.59;76.01;100277.50;10344238;28;96528;-93
2023/05/20 20:31:27;;;;;;;6.90;4.95;;;18.00;92.40;;;16.52;76.58;100276.66;10342591;28;96659;-93
2023/05/20 20:36:33;;;;;;;6.07;4.90;;;17.90;93.20;;;16.48;77.32;100277.28;10349015;28;98234;-93
2023/05/20 20:41:37;;;;;;;8.05;5.05;;;17.80;93.90;;;16.39;78.17;100278.50;10360493;28;96536;-93